首页
METAR-TAF:

METAR-TAF

机场 :

哥伦比亚, 南卡罗来纳州, 美国

纬度: 33-58-15N, 经度: 080-59-40W, 海拔: 64米

当前天气观测

该预报发布于1小时和12分钟前的19:53 UTC
风速6节,风向多变
温度 13°C
湿度 62%
气压 1023 hPa
能見度: 16.1公里
多云层高于9000英尺

METAR: KCUB 261953Z AUTO VRB06KT 10SM BKN090 13/06 A3020 RMK AO2 SLP224 T01280061

时间: 16:05 (21:05 UTC)

预报

该预报发布于8分钟前的20:57 UTC
预报有效从26日的 21点(UTC)到 27日的 18点(UTC)
风速4节,风向东北
能見度: 10公里
多云层高于8000英尺
从 27日的 0600点(UTC)
风速3节,风向多变
能見度: 10公里
散云层高于1500英尺
多云层高于5000英尺
从 27日的 1500点(UTC)
风速5节,风向西南
能見度: 10公里
散云层高于4000英尺

TAF: KCUB 262057Z 2621/2718 05004KT P6SM BKN080 FM270600 VRB03KT P6SM SCT015 BKN050 FM271500 22005KT P6SM SCT040

超过4000个机场的气象观测和天气预报(METAR&TAF报告)。

可查询的气象台以黄色和红色小点在地图上表示。

将鼠标移到小点上方,可查看气象台名称。

然后点击查看天气观测和预报。

如需切换地图:点击带黑十字的绿色按钮放大地图;点击带横线的绿色按钮缩小地图;或者点击绿色箭头查看邻近地区的地图。


METAR-TAF: